»·PEaware :: N313N KSAC-KSNA

N313N :: KSAC-KSNA

FLIGHT INFORMATION

Flight Status: Arrived
Operator: Privately registered:
United States
More flights under this callsign
Pilot: Damien O. (2415)
Aircraft: GULFSTREAM G-1159C GULFSTREAM 4
(GLF4)
More flights by this aircraft type
Origin: KSAC Sacramento Executive
United States
Destination: KSNA John Wayne-Orange Co
United States
More flights between these airports :: More routes between these airports
Route: +REBRG OHSEA2
File this flight plan on PilotEdge
Remarks:
Altitude:
(Current/Filed)
210ft
Speed:
(Current/Filed)
330kts
Departed: 23-Mar-19 03:09 PM
Arrived: 23-Mar-19 04:22 PM
Distance/Time
Traveled:
339nm/1:13
Distance/Time
To Go:
Arrived

Flight Plot

Page will automatically refresh every two minutes.

Flight plan parsing failed; only flown route is shown


Map Options




Map Legend


Flown Route
Filed Route
Departure Airport
Arrival Airport
Navaid (VOR, NDB)
Fix

Horizontal Profiles

Position Reports

Time Latitude Longitude Heading Altitude Ground
Speed
23-Mar-19 14:52 38.513908 -121.497515 212 31ft 0kts
23-Mar-19 14:53 38.513908 -121.497515 212 31ft 0kts
23-Mar-19 14:54 38.513908 -121.497515 212 31ft 0kts
23-Mar-19 14:55 38.513908 -121.497515 212 31ft 0kts
23-Mar-19 14:56 38.513908 -121.497515 212 31ft 0kts
23-Mar-19 14:57 38.513908 -121.497515 212 31ft 0kts
23-Mar-19 14:58 38.513908 -121.497515 212 31ft 0kts
23-Mar-19 14:59 38.513908 -121.497515 212 31ft 0kts
23-Mar-19 15:00 38.513908 -121.497515 212 31ft 0kts
23-Mar-19 15:01 38.513908 -121.497515 212 31ft 0kts
23-Mar-19 15:02 38.513908 -121.497515 212 31ft 0kts
23-Mar-19 15:03 38.513907 -121.497516 212 31ft 0kts
23-Mar-19 15:04 38.513756 -121.495372 44 31ft 7kts
23-Mar-19 15:05 38.516644 -121.492922 34 31ft 25kts
23-Mar-19 15:06 38.519138 -121.490621 81 31ft 0kts
23-Mar-19 15:07 38.518702 -121.489608 209 31ft 3kts
23-Mar-19 15:08 38.497464 -121.500804 172 488ft 214kts
23-Mar-19 15:09 38.451863 -121.482938 163 1325ft 249kts
23-Mar-19 15:10 38.401988 -121.462424 163 3574ft 259kts
23-Mar-19 15:11 38.360826 -121.432036 150 5461ft 269kts
23-Mar-19 15:12 38.332791 -121.410056 150 6771ft 276kts
23-Mar-19 15:13 38.305899 -121.388870 150 7998ft 283kts
23-Mar-19 15:14 38.263796 -121.355685 150 9860ft 294kts
23-Mar-19 15:15 38.217667 -121.319607 150 11818ft 306kts
23-Mar-19 15:17 38.168525 -121.281088 150 13823ft 319kts
23-Mar-19 15:18 38.115417 -121.239232 151 15903ft 333kts
23-Mar-19 15:19 38.054068 -121.191167 152 18185ft 399kts
23-Mar-19 15:20 37.973329 -121.128178 152 20547ft 462kts
23-Mar-19 15:21 37.899593 -121.070731 153 21004ft 462kts
23-Mar-19 15:22 37.833095 -121.018527 153 21013ft 457kts
23-Mar-19 15:23 37.761405 -120.962772 154 21228ft 455kts
23-Mar-19 15:24 37.690319 -120.908191 154 21229ft 454kts
23-Mar-19 15:25 37.619620 -120.853905 153 21230ft 454kts
23-Mar-19 15:26 37.546372 -120.797689 153 21231ft 454kts
23-Mar-19 15:27 37.468309 -120.737803 153 21236ft 455kts
23-Mar-19 15:28 37.386659 -120.675167 153 21239ft 455kts
23-Mar-19 15:29 37.299575 -120.608354 153 21237ft 454kts
23-Mar-19 15:30 37.208327 -120.538377 153 21233ft 454kts
23-Mar-19 15:31 37.121115 -120.471508 153 21232ft 454kts
23-Mar-19 15:32 37.034485 -120.405414 154 21235ft 459kts
23-Mar-19 15:33 36.951367 -120.341877 156 21233ft 465kts
23-Mar-19 15:33 36.881591 -120.289701 155 21232ft 465kts
23-Mar-19 15:35 36.769681 -120.206092 155 21235ft 465kts
23-Mar-19 15:36 36.670538 -120.132040 155 21236ft 465kts
23-Mar-19 15:36 36.589317 -120.071352 155 21237ft 464kts
23-Mar-19 15:37 36.495799 -120.001516 155 21237ft 465kts
23-Mar-19 15:39 36.396347 -119.927241 155 21236ft 465kts
23-Mar-19 15:39 36.326206 -119.874867 155 21234ft 465kts
23-Mar-19 15:40 36.237664 -119.808744 155 21232ft 465kts
23-Mar-19 15:41 36.150729 -119.743476 155 21231ft 465kts
23-Mar-19 15:42 36.066053 -119.679174 155 21232ft 465kts
23-Mar-19 15:43 35.972874 -119.629882 191 21261ft 432kts
23-Mar-19 15:44 35.891762 -119.642322 194 21230ft 427kts
23-Mar-19 15:45 35.796609 -119.657636 194 21228ft 427kts
23-Mar-19 15:46 35.697469 -119.673786 195 21224ft 425kts
23-Mar-19 15:47 35.588228 -119.637240 163 21225ft 457kts
23-Mar-19 15:48 35.487972 -119.583445 163 21224ft 457kts
23-Mar-19 15:49 35.386719 -119.529113 163 21224ft 457kts
23-Mar-19 15:50 35.287467 -119.475854 162 21225ft 457kts
23-Mar-19 15:51 35.189419 -119.423232 162 21225ft 457kts
23-Mar-19 15:52 35.082269 -119.365142 162 21227ft 458kts
23-Mar-19 15:53 35.000221 -119.320349 162 21214ft 458kts
23-Mar-19 15:54 34.900640 -119.265500 162 21204ft 462kts
23-Mar-19 15:55 34.809606 -119.215798 162 21019ft 468kts
23-Mar-19 15:56 34.695290 -119.150359 158 21000ft 529kts
23-Mar-19 15:57 34.587228 -119.081074 157 20998ft 527kts
23-Mar-19 15:58 34.483229 -119.014033 158 21000ft 526kts
23-Mar-19 15:59 34.383015 -118.948185 157 21000ft 526kts
23-Mar-19 16:00 34.285056 -118.883248 156 21001ft 525kts
23-Mar-19 16:01 34.184308 -118.827654 168 20452ft 439kts
23-Mar-19 16:02 34.089617 -118.790498 167 18025ft 435kts
23-Mar-19 16:03 33.994181 -118.753680 166 15464ft 413kts
23-Mar-19 16:04 33.907835 -118.720196 167 14001ft 367kts
23-Mar-19 16:05 33.828138 -118.689227 166 13964ft 350kts
23-Mar-19 16:06 33.733140 -118.653329 168 13901ft 349kts
23-Mar-19 16:07 33.652407 -118.572564 102 12832ft 367kts
23-Mar-19 16:08 33.634103 -118.462224 101 10946ft 347kts
23-Mar-19 16:09 33.615480 -118.356643 101 9058ft 333kts
23-Mar-19 16:10 33.597200 -118.259556 101 7204ft 317kts
23-Mar-19 16:11 33.580109 -118.161657 101 6926ft 249kts
23-Mar-19 16:12 33.567539 -118.078144 101 6985ft 256kts
23-Mar-19 16:13 33.556600 -118.001114 101 6995ft 256kts
23-Mar-19 16:14 33.594720 -117.947844 21 5654ft 255kts
23-Mar-19 16:15 33.643177 -117.922580 21 5033ft 214kts
23-Mar-19 16:16 33.679783 -117.903189 21 4341ft 194kts
23-Mar-19 16:17 33.712065 -117.886529 21 3096ft 191kts
23-Mar-19 16:18 33.728911 -117.849816 127 1579ft 165kts
23-Mar-19 16:19 33.698428 -117.854329 208 707ft 157kts
23-Mar-19 16:20 33.674838 -117.869347 207 64ft 72kts
23-Mar-19 16:21 33.669205 -117.871701 124 64ft 16kts
23-Mar-19 16:22 33.671554 -117.868389 42 64ft 18kts
23-Mar-19 16:23 33.671665 -117.867269 201 64ft 0kts
23-Mar-19 16:24 33.671665 -117.867269 201 64ft 0kts

Navigation Log

Ident Type
Flight plan parsing failed, navigation log unavailable